Search for airport 
image banner adimage banner adimage banner ad
image banner ad

1Q4 - New Jerusalem

Located in Tracy, United States

ICAO - 1Q4, IATA -

Data provided by Airmate  

General information

Coordinates: N37°40'40" W121°18'4"
Elevation is 62 feet MSL.
Magnetic variation is 16° East
View others Airports in California

Operational data

Special qualification required
Current time UTC:
Current local time:
Weather at : KTCY - Tracy Muni ( 12 km )
METAR: KTCY 221435Z AUTO 00000KT 10SM CLR 17/14 A2990 RMK A01
View NOTAMs / SUP AIP / TFR affecting this airport [VIEW]
Communications frequencies: [VIEW]

Runways:

RWY identifierQFULength (ft)Width (ft)SurfaceLDA (ft)
12353060ASPH
30353060ASPH

Airport contact information

Address: Tracy United States

Satellite view of 1Q4